Time;durP1;ratioP1;P1;durP2;ratioP2;P2;SDS_P1;SDS_P2;PMS_P1;PMS_P2;Temp;Humidity;BMP_temperature;BMP_pressure;BME280_temperature;BME280_humidity;BME280_pressure;Samples;Min_cycle;Max_cycle;Signal;HPM_P1;HPM_P2
2022/02/09 00:08:43;;;;;;;10.4;13.4;;;;;;;6;85.9;99380;;;;
2022/02/09 00:20:00;;;;;;;10.4;13.4;;;;;;;6;85.6;99380;;;;
2022/02/09 00:31:13;;;;;;;10.4;13.4;;;;;;;6.1;85.6;99390;;;;
2022/02/09 00:40:15;;;;;;;9.5;11.7;;;;;;;6.2;85.1;99410;;;;
2022/02/09 01:55:50;;;;;;;9.7;12.5;;;;;;;6.4;84.3;99480;;;;
2022/02/09 02:05:43;;;;;;;9.7;12.5;;;;;;;6.4;84.5;99490;;;;
2022/02/09 02:16:08;;;;;;;8.4;11.1;;;;;;;6.4;84.5;99490;;;;
2022/02/09 02:27:02;;;;;;;8.4;11.1;;;;;;;6.4;84.5;99500;;;;
2022/02/09 02:39:09;;;;;;;12;13.9;;;;;;;6.4;84.5;99500;;;;
2022/02/09 02:59:16;;;;;;;12;13.9;;;;;;;6.4;84.6;99510;;;;
2022/02/09 03:09:57;;;;;;;10.3;13.7;;;;;;;6.3;84.7;99510;;;;
2022/02/09 03:19:50;;;;;;;10.3;13.7;;;;;;;6.3;85.1;99530;;;;
2022/02/09 03:31:08;;;;;;;10.3;13.7;;;;;;;6.4;84.8;99540;;;;
2022/02/09 03:51:52;;;;;;;10.5;11.8;;;;;;;6.2;85.1;99540;;;;
2022/02/09 04:01:44;;;;;;;10.5;11.8;;;;;;;6.3;85;99540;;;;
2022/02/09 04:11:47;;;;;;;11.9;13.3;;;;;;;6.3;85;99540;;;;
2022/02/09 04:42:35;;;;;;;10.8;12.5;;;;;;;6.3;84.8;99540;;;;
2022/02/09 04:51:59;;;;;;;10.8;12.5;;;;;;;6.2;84.7;99550;;;;
2022/02/09 05:02:07;;;;;;;10.8;12.5;;;;;;;6.2;84.7;99550;;;;
2022/02/09 05:22:17;;;;;;;11;12.5;;;;;;;6.2;84.5;99560;;;;
2022/02/09 05:32:43;;;;;;;11;12.5;;;;;;;6.2;84.7;99560;;;;
2022/02/09 05:42:43;;;;;;;13.7;15.5;;;;;;;6.2;84.8;99550;;;;
2022/02/09 05:53:58;;;;;;;13.7;15.5;;;;;;;6.2;85;99560;;;;
2022/02/09 06:03:43;;;;;;;13.7;15.5;;;;;;;6.2;85.2;99570;;;;
2022/02/09 06:15:00;;;;;;;10;12.9;;;;;;;6.3;85.2;99580;;;;
2022/02/09 06:24:43;;;;;;;10;12.9;;;;;;;6.3;85.5;99590;;;;
2022/02/09 06:35:44;;;;;;;9.9;12.7;;;;;;;6.4;85.7;99580;;;;
2022/02/09 06:46:43;;;;;;;9.9;12.7;;;;;;;6.5;85.5;99580;;;;
2022/02/09 06:57:00;;;;;;;9.9;12.7;;;;;;;6.6;85.1;99590;;;;
2022/02/09 07:07:43;;;;;;;11;13.4;;;;;;;6.7;84.6;99600;;;;
2022/02/09 07:17:44;;;;;;;11;13.4;;;;;;;6.9;84.2;99590;;;;
2022/02/09 07:27:50;;;;;;;11;13.4;;;;;;;7;83.8;99600;;;;
2022/02/09 07:38:44;;;;;;;10.8;12.8;;;;;;;7.1;83.1;99600;;;;
2022/02/09 07:48:54;;;;;;;10.8;12.8;;;;;;;7.3;82.9;99610;;;;
2022/02/09 07:59:43;;;;;;;10.8;12.8;;;;;;;7.3;83.4;99610;;;;
2022/02/09 08:09:45;;;;;;;13.3;16.4;;;;;;;7.4;83.6;99610;;;;
2022/02/09 08:30:47;;;;;;;13.3;16.4;;;;;;;7.7;83.1;99600;;;;
2022/02/09 08:40:43;;;;;;;15.7;20.9;;;;;;;8;82.8;99600;;;;
2022/02/09 08:51:43;;;;;;;15.7;20.9;;;;;;;8.2;81.9;99600;;;;
2022/02/09 09:02:47;;;;;;;15.7;20.9;;;;;;;8.1;82.2;99610;;;;
2022/02/09 10:37:43;;;;;;;6.9;9.1;;;;;;;9.3;77.5;99590;;;;
2022/02/09 10:48:49;;;;;;;6.9;9.1;;;;;;;9.7;76.6;99580;;;;
2022/02/09 10:59:46;;;;;;;6.9;9.1;;;;;;;9.6;75.8;99560;;;;
2022/02/09 11:09:44;;;;;;;7.4;9.4;;;;;;;10.2;74.8;99570;;;;
2022/02/09 11:19:45;;;;;;;7.4;9.4;;;;;;;10.1;74.1;99560;;;;
2022/02/09 11:30:47;;;;;;;7.4;9.4;;;;;;;9.8;73.8;99550;;;;
2022/02/09 11:40:50;;;;;;;6.3;9.7;;;;;;;10.1;72.9;99530;;;;
2022/02/09 11:51:12;;;;;;;6.3;9.7;;;;;;;10;73.8;99550;;;;
2022/02/09 12:08:44;;;;;;;6.3;9.7;;;;;;;9.9;73.6;99550;;;;
2022/02/09 12:12:44;;;;;;;6;9.1;;;;;;;9.8;73.8;99550;;;;
2022/02/09 12:22:49;;;;;;;6;9.1;;;;;;;9.5;74.7;99560;;;;
2022/02/09 12:32:46;;;;;;;6;9.1;;;;;;;9.4;75.4;99550;;;;
2022/02/09 12:43:43;;;;;;;5.9;9.3;;;;;;;9.5;74.2;99540;;;;
2022/02/09 12:54:43;;;;;;;5.9;9.3;;;;;;;9.4;74.6;99540;;;;
2022/02/09 13:04:44;;;;;;;5.9;9.3;;;;;;;9.5;74.6;99540;;;;
2022/02/09 13:14:46;;;;;;;5.1;8.1;;;;;;;9.7;74.6;99540;;;;
2022/02/09 13:25:25;;;;;;;5.1;8.1;;;;;;;9.6;74.3;99540;;;;
2022/02/09 15:01:51;;;;;;;5.7;9.1;;;;;;;8.8;75.7;99540;;;;
2022/02/09 15:12:54;;;;;;;6.9;9.2;;;;;;;8.6;75.7;99550;;;;
2022/02/09 15:22:46;;;;;;;6.9;9.2;;;;;;;8.4;76.5;99540;;;;
2022/02/09 15:32:48;;;;;;;6.9;9.2;;;;;;;8.4;76.8;99550;;;;
2022/02/09 15:43:00;;;;;;;8.9;11.7;;;;;;;8.2;76.9;99530;;;;
2022/02/09 16:26:16;;;;;;;8.4;11.8;;;;;;;8;75.1;99540;;;;
2022/02/09 16:46:51;;;;;;;8.2;11.2;;;;;;;7.7;75;99530;;;;
2022/02/09 16:56:56;;;;;;;8.2;11.2;;;;;;;7.6;75;99550;;;;
2022/02/09 17:18:50;;;;;;;7.5;9.9;;;;;;;7.6;75;99550;;;;
2022/02/09 17:27:47;;;;;;;7.5;9.9;;;;;;;7.5;75.3;99550;;;;
2022/02/09 17:38:50;;;;;;;10.2;13.3;;;;;;;7.5;75.2;99540;;;;
2022/02/09 17:59:56;;;;;;;10.2;13.3;;;;;;;7.5;75.3;99540;;;;
2022/02/09 18:09:49;;;;;;;8.7;11.2;;;;;;;7.5;75.2;99550;;;;
2022/02/09 18:30:54;;;;;;;8.7;11.2;;;;;;;7.4;75.4;99540;;;;
2022/02/09 18:42:39;;;;;;;10.6;12.9;;;;;;;7.4;75.7;99530;;;;
2022/02/09 19:01:14;;;;;;;10.6;12.9;;;;;;;7.4;76;99540;;;;
2022/02/09 19:31:46;;;;;;;13.7;16.7;;;;;;;7.3;77.5;99550;;;;
2022/02/09 19:43:49;;;;;;;15.1;18.4;;;;;;;7.1;76.7;99560;;;;
2022/02/09 19:51:50;;;;;;;15.1;18.4;;;;;;;7.1;76.2;99560;;;;
2022/02/09 20:01:45;;;;;;;15.1;18.4;;;;;;;7;75.6;99570;;;;
2022/02/09 20:12:44;;;;;;;11.1;15.2;;;;;;;7;75.1;99580;;;;
2022/02/09 20:22:44;;;;;;;11.1;15.2;;;;;;;7;74.3;99580;;;;
2022/02/09 20:32:49;;;;;;;11.1;15.2;;;;;;;7;74;99580;;;;
2022/02/09 20:43:56;;;;;;;9.1;13.6;;;;;;;6.9;73.5;99580;;;;
2022/02/09 20:53:44;;;;;;;9.1;13.6;;;;;;;6.9;73;99570;;;;
2022/02/09 21:04:45;;;;;;;9.9;12.9;;;;;;;6.9;72.5;99560;;;;
2022/02/09 21:15:01;;;;;;;9.9;12.9;;;;;;;6.9;71.6;99550;;;;
2022/02/09 21:26:27;;;;;;;9.9;12.9;;;;;;;6.9;71.2;99540;;;;
2022/02/09 21:49:07;;;;;;;8.5;10.8;;;;;;;6.9;70.4;99550;;;;
2022/02/09 21:57:54;;;;;;;8.5;10.8;;;;;;;6.9;70;99550;;;;
2022/02/09 22:19:31;;;;;;;6.5;8.4;;;;;;;6.9;69.3;99540;;;;
2022/02/09 22:28:52;;;;;;;6.5;8.4;;;;;;;6.8;69.3;99540;;;;
2022/02/09 22:48:58;;;;;;;6.3;9.5;;;;;;;6.7;69.2;99520;;;;
2022/02/09 22:59:48;;;;;;;6.3;9.5;;;;;;;6.8;69;99520;;;;
2022/02/09 23:09:55;;;;;;;6.5;10.1;;;;;;;6.7;69;99520;;;;
2022/02/09 23:54:14;;;;;;;5.4;10.8;;;;;;;6.7;68.9;99480;;;;
